createdAt,value
2017-02-21T00:00:54.669Z,997.72
2017-02-21T00:02:04.485Z,997.73
2017-02-21T00:03:14.246Z,997.78
2017-02-21T00:04:23.558Z,997.75
2017-02-21T00:05:32.888Z,997.73
2017-02-21T00:06:42.692Z,997.71
2017-02-21T00:07:53.543Z,997.72
2017-02-21T00:09:02.864Z,997.73
2017-02-21T00:10:12.197Z,997.67
2017-02-21T00:11:21.533Z,997.71
2017-02-21T00:12:31.744Z,997.73
2017-02-21T00:13:41.369Z,997.76
2017-02-21T00:14:51.134Z,997.78
2017-02-21T00:16:00.467Z,997.81
2017-02-21T00:17:09.799Z,997.74
2017-02-21T00:18:19.568Z,997.75
2017-02-21T00:19:29.375Z,997.73
2017-02-21T00:20:38.699Z,997.74
2017-02-21T00:21:48.461Z,997.79
2017-02-21T00:22:57.786Z,997.73
2017-02-21T00:24:07.111Z,997.78
2017-02-21T00:25:16.476Z,997.81
2017-02-21T00:26:25.802Z,997.8
2017-02-21T00:27:35.157Z,997.83
2017-02-21T00:28:45.814Z,997.8
2017-02-21T00:29:55.573Z,997.82
2017-02-21T00:31:05.386Z,997.8
2017-02-21T00:32:14.742Z,997.75
2017-02-21T00:33:24.540Z,997.63
2017-02-21T00:34:33.878Z,997.62
2017-02-21T00:35:43.643Z,997.61
2017-02-21T00:36:53.548Z,997.71
2017-02-21T00:38:03.309Z,997.67
2017-02-21T00:39:12.617Z,997.58
2017-02-21T00:40:21.931Z,997.63
2017-02-21T00:41:31.683Z,997.6
2017-02-21T00:42:42.377Z,997.64
2017-02-21T00:43:51.706Z,997.64
2017-02-21T00:45:01.468Z,997.64
2017-02-21T00:46:10.780Z,997.56
2017-02-21T00:47:20.101Z,997.57
2017-02-21T00:48:29.461Z,997.48
2017-02-21T00:49:38.801Z,997.53
2017-02-21T00:50:48.140Z,997.61
2017-02-21T00:51:58.335Z,997.55
2017-02-21T00:53:07.663Z,997.54
2017-02-21T00:54:17.046Z,997.54
2017-02-21T00:55:26.366Z,997.64
2017-02-21T00:56:35.708Z,997.58
2017-02-21T00:57:45.485Z,997.52
2017-02-21T00:58:54.810Z,997.5
2017-02-21T01:00:04.175Z,997.49
2017-02-21T01:01:13.525Z,997.46
2017-02-21T01:02:22.852Z,997.49
2017-02-21T01:03:32.599Z,997.55
2017-02-21T01:04:41.948Z,997.57
2017-02-21T01:05:52.669Z,997.53
2017-02-21T01:07:02.419Z,997.56
2017-02-21T01:08:12.204Z,997.55
2017-02-21T01:09:21.545Z,997.54
2017-02-21T01:10:31.322Z,997.52
2017-02-21T01:11:40.694Z,997.49
2017-02-21T01:12:51.351Z,997.52
2017-02-21T01:14:01.565Z,997.51
2017-02-21T01:15:10.897Z,997.47
2017-02-21T01:16:21.120Z,997.45
2017-02-21T01:17:30.559Z,997.43
2017-02-21T01:18:40.750Z,997.42
2017-02-21T01:19:50.508Z,997.41
2017-02-21T01:20:59.833Z,997.44
2017-02-21T01:22:09.146Z,997.47
2017-02-21T01:23:18.954Z,997.43
2017-02-21T01:24:28.312Z,997.41
2017-02-21T01:25:38.520Z,997.42
2017-02-21T01:26:48.287Z,997.43
2017-02-21T01:27:58.088Z,997.38
2017-02-21T01:29:07.895Z,997.4
2017-02-21T01:30:17.652Z,997.37
2017-02-21T01:31:27.419Z,997.3
2017-02-21T01:32:36.780Z,997.28
2017-02-21T01:33:46.112Z,997.26
2017-02-21T01:34:55.975Z,997.26
2017-02-21T01:36:05.307Z,997.31
2017-02-21T01:37:14.633Z,997.34
2017-02-21T01:38:24.002Z,997.3
2017-02-21T01:39:33.319Z,997.32
2017-02-21T01:40:42.696Z,997.29
2017-02-21T01:41:52.470Z,997.28
2017-02-21T01:43:01.808Z,997.27
2017-02-21T01:44:11.124Z,997.28
2017-02-21T01:45:20.869Z,997.22
2017-02-21T01:46:30.391Z,997.3
2017-02-21T01:47:39.775Z,997.38
2017-02-21T01:48:49.537Z,997.35
2017-02-21T01:49:59.326Z,997.4
2017-02-21T01:51:08.649Z,997.35
2017-02-21T01:52:18.448Z,997.38
2017-02-21T01:53:27.797Z,997.37
2017-02-21T01:54:37.118Z,997.38
2017-02-21T01:55:46.436Z,997.41
2017-02-21T01:56:55.749Z,997.34
2017-02-21T01:58:05.136Z,997.47
2017-02-21T01:59:14.442Z,997.48
2017-02-21T02:00:23.761Z,997.38
2017-02-21T02:01:33.537Z,997.4
2017-02-21T02:02:42.890Z,997.41
2017-02-21T02:03:52.706Z,997.46
2017-02-21T02:05:02.045Z,997.5
2017-02-21T02:06:11.385Z,997.43
2017-02-21T02:07:22.472Z,997.31
2017-02-21T02:08:32.267Z,997.35
2017-02-21T02:09:42.224Z,997.33
2017-02-21T02:10:51.980Z,997.31
2017-02-21T02:12:02.180Z,997.28
2017-02-21T02:13:11.506Z,997.23
2017-02-21T02:14:21.276Z,997.18
2017-02-21T02:15:30.644Z,997.24
2017-02-21T02:16:39.993Z,997.3
2017-02-21T02:17:49.323Z,997.32
2017-02-21T02:18:58.651Z,997.41
2017-02-21T02:20:08.428Z,997.44
2017-02-21T02:21:17.789Z,997.37
2017-02-21T02:22:27.546Z,997.31
2017-02-21T02:23:36.900Z,997.32
2017-02-21T02:24:46.212Z,997.4
2017-02-21T02:25:55.525Z,997.36
2017-02-21T02:27:05.383Z,997.36
2017-02-21T02:28:15.144Z,997.31
2017-02-21T02:29:25.349Z,997.28
2017-02-21T02:30:34.663Z,997.34
2017-02-21T02:31:43.992Z,997.33
2017-02-21T02:32:53.373Z,997.34
2017-02-21T02:34:02.702Z,997.31
2017-02-21T02:35:12.463Z,997.27
2017-02-21T02:36:21.868Z,997.19
2017-02-21T02:37:31.192Z,997.24
2017-02-21T02:38:40.993Z,997.23
2017-02-21T02:39:51.178Z,997.21
2017-02-21T02:41:01.407Z,997.2
2017-02-21T02:42:12.050Z,997.29
2017-02-21T02:43:21.827Z,997.19
2017-02-21T02:44:32.056Z,997.21
2017-02-21T02:45:41.825Z,997.26
2017-02-21T02:46:51.151Z,997.29
2017-02-21T02:48:00.882Z,997.31
2017-02-21T02:49:11.091Z,997.27
2017-02-21T02:50:20.898Z,997.31
2017-02-21T02:51:30.209Z,997.27
2017-02-21T02:52:40.383Z,997.21
2017-02-21T02:53:50.150Z,997.25
2017-02-21T02:54:59.919Z,997.22
2017-02-21T02:56:09.734Z,997.24
2017-02-21T02:57:20.364Z,997.21
2017-02-21T02:58:30.109Z,997.16
2017-02-21T02:59:39.865Z,997.19
2017-02-21T03:00:50.068Z,997.24
2017-02-21T03:01:59.865Z,997.21
2017-02-21T03:03:09.210Z,997.18
2017-02-21T03:04:18.987Z,997.15
2017-02-21T03:05:28.768Z,997.16
2017-02-21T03:06:38.554Z,997.16
2017-02-21T03:07:48.515Z,997.12
2017-02-21T03:08:57.824Z,997.12
2017-02-21T03:10:07.589Z,997.03
2017-02-21T03:11:17.786Z,997.06
2017-02-21T03:12:27.550Z,997.1
2017-02-21T03:13:38.013Z,997.09
2017-02-21T03:14:47.754Z,997.08
2017-02-21T03:15:57.099Z,997.16
2017-02-21T03:17:06.450Z,997.1
2017-02-21T03:18:16.197Z,997.11
2017-02-21T03:19:26.018Z,997.1
2017-02-21T03:20:35.335Z,997.03
2017-02-21T03:21:45.104Z,996.96
2017-02-21T03:22:54.486Z,996.97
2017-02-21T03:24:04.682Z,996.98
2017-02-21T03:25:14.920Z,996.94
2017-02-21T03:26:24.701Z,997.01
2017-02-21T03:27:34.010Z,997.08
2017-02-21T03:28:43.324Z,997.04
2017-02-21T03:29:53.068Z,997.08
2017-02-21T03:31:02.457Z,997.09
2017-02-21T03:32:12.225Z,997.11
2017-02-21T03:33:22.412Z,997.12
2017-02-21T03:34:32.172Z,997.12
2017-02-21T03:35:41.482Z,997.12
2017-02-21T03:36:51.740Z,997.11
2017-02-21T03:38:02.377Z,997.05
2017-02-21T03:39:12.132Z,997.1
2017-02-21T03:40:21.899Z,997.19
2017-02-21T03:41:32.124Z,997.19
2017-02-21T03:42:41.946Z,997.12
2017-02-21T03:43:51.719Z,997.18
2017-02-21T03:45:01.061Z,997.1
2017-02-21T03:46:11.253Z,997.08
2017-02-21T03:47:21.009Z,997.08
2017-02-21T03:48:30.804Z,997.1
2017-02-21T03:49:40.571Z,997.17
2017-02-21T03:50:50.325Z,997.16
2017-02-21T03:52:00.534Z,997.16
2017-02-21T03:53:10.284Z,997.14
2017-02-21T03:54:20.085Z,997.13
2017-02-21T03:55:29.842Z,997.1
2017-02-21T03:56:39.584Z,997.14
2017-02-21T03:57:48.919Z,997.22
2017-02-21T03:58:58.662Z,997.27
2017-02-21T04:00:08.029Z,997.29
2017-02-21T04:01:17.374Z,997.24
2017-02-21T04:02:26.689Z,997.31
2017-02-21T04:03:35.998Z,997.35
2017-02-21T04:04:45.336Z,997.3
2017-02-21T04:05:54.817Z,997.3
2017-02-21T04:07:05.028Z,997.28
2017-02-21T04:08:14.778Z,997.25
2017-02-21T04:09:24.960Z,997.28
2017-02-21T04:10:35.153Z,997.23
2017-02-21T04:11:44.954Z,997.22
2017-02-21T04:12:54.728Z,997.19
2017-02-21T04:14:05.349Z,997.23
2017-02-21T04:15:14.658Z,997.22
2017-02-21T04:16:23.979Z,997.21
2017-02-21T04:17:34.208Z,997.23
2017-02-21T04:18:44.392Z,997.27
2017-02-21T04:19:55.063Z,997.23
2017-02-21T04:21:04.807Z,997.21
2017-02-21T04:22:14.577Z,997.22
2017-02-21T04:23:23.933Z,997.16
2017-02-21T04:24:33.264Z,997.22
2017-02-21T04:25:43.017Z,997.22
2017-02-21T04:26:52.801Z,997.15
2017-02-21T04:28:02.999Z,997.11
2017-02-21T04:29:13.279Z,997.05
2017-02-21T04:30:22.621Z,996.99
2017-02-21T04:31:32.865Z,997.02
2017-02-21T04:32:42.622Z,997
2017-02-21T04:33:53.681Z,997.05
2017-02-21T04:35:03.156Z,997.09
2017-02-21T04:36:14.231Z,997.05
2017-02-21T04:37:24.444Z,997.12
2017-02-21T04:38:34.201Z,997.14
2017-02-21T04:39:43.954Z,997.11
2017-02-21T04:40:53.748Z,997.15
2017-02-21T04:42:03.073Z,997.18
2017-02-21T04:43:12.829Z,997.1
2017-02-21T04:44:22.590Z,997.05
2017-02-21T04:45:32.357Z,997.2
2017-02-21T04:46:41.736Z,997.18
2017-02-21T04:47:51.493Z,996.97
2017-02-21T04:49:01.740Z,997.1
2017-02-21T04:50:11.917Z,997.11
2017-02-21T04:51:21.230Z,997.1
2017-02-21T04:52:31.478Z,997.14
2017-02-21T04:53:41.231Z,997.12
2017-02-21T04:54:51.465Z,997.18
2017-02-21T04:56:00.779Z,997.14
2017-02-21T04:57:10.108Z,997.12
2017-02-21T04:58:20.439Z,997.08
2017-02-21T04:59:30.639Z,997.07
2017-02-21T05:00:40.391Z,997.11
2017-02-21T05:01:51.013Z,997.14
2017-02-21T05:03:00.766Z,997.11
2017-02-21T05:04:10.126Z,997.1
2017-02-21T05:05:20.321Z,997.09
2017-02-21T05:06:29.634Z,997.09
2017-02-21T05:07:39.843Z,997.08
2017-02-21T05:08:49.597Z,997.1
2017-02-21T05:09:58.954Z,997.11
2017-02-21T05:11:08.715Z,997.11
2017-02-21T05:12:18.463Z,997.09
2017-02-21T05:13:28.246Z,997.06
2017-02-21T05:14:38.438Z,997.07
2017-02-21T05:15:48.675Z,997.02
2017-02-21T05:16:58.445Z,997.02
2017-02-21T05:18:07.749Z,997.01
2017-02-21T05:19:17.511Z,997.08
2017-02-21T05:20:27.703Z,997.11
2017-02-21T05:21:37.060Z,997.17
2017-02-21T05:22:46.835Z,997.16
2017-02-21T05:23:56.616Z,997.11
2017-02-21T05:25:06.388Z,997.14
2017-02-21T05:26:15.738Z,997.12
2017-02-21T05:27:26.439Z,997.12
2017-02-21T05:28:35.768Z,997.22
2017-02-21T05:29:45.084Z,997.24
2017-02-21T05:30:54.397Z,997.22
2017-02-21T05:32:05.026Z,997.24
2017-02-21T05:33:15.267Z,997.27
2017-02-21T05:34:25.453Z,997.37
2017-02-21T05:35:36.111Z,997.39
2017-02-21T05:36:45.425Z,997.31
2017-02-21T05:37:54.745Z,997.31
2017-02-21T05:39:04.535Z,997.35
2017-02-21T05:40:14.292Z,997.42
2017-02-21T05:41:24.963Z,997.41
2017-02-21T05:42:35.598Z,997.39
2017-02-21T05:43:45.360Z,997.37
2017-02-21T05:44:54.720Z,997.5
2017-02-21T05:46:05.354Z,997.49
2017-02-21T05:47:14.667Z,997.38
2017-02-21T05:48:23.987Z,997.55
2017-02-21T05:49:33.741Z,997.44
2017-02-21T05:50:43.535Z,997.43
2017-02-21T05:51:52.864Z,997.46
2017-02-21T05:53:02.179Z,997.44
2017-02-21T05:54:12.365Z,997.54
2017-02-21T05:55:22.561Z,997.51
2017-02-21T05:56:32.364Z,997.52
2017-02-21T05:57:41.696Z,997.52
2017-02-21T05:58:51.035Z,997.56
2017-02-21T06:00:00.367Z,997.57
2017-02-21T06:01:10.141Z,997.66
2017-02-21T06:02:20.394Z,997.6
2017-02-21T06:03:29.710Z,997.59
2017-02-21T06:04:39.949Z,997.52
2017-02-21T06:05:49.706Z,997.63
2017-02-21T06:06:59.035Z,997.59
2017-02-21T06:08:08.832Z,997.64
2017-02-21T06:09:18.622Z,997.66
2017-02-21T06:10:28.810Z,997.68
2017-02-21T06:11:38.138Z,997.74
2017-02-21T06:12:48.756Z,997.73
2017-02-21T06:13:59.002Z,997.76
2017-02-21T06:15:08.743Z,997.79
2017-02-21T06:16:18.516Z,997.77
2017-02-21T06:17:28.281Z,997.85
2017-02-21T06:18:38.051Z,997.8
2017-02-21T06:19:47.867Z,997.83
2017-02-21T06:20:57.629Z,997.8
2017-02-21T06:22:06.978Z,997.79
2017-02-21T06:23:16.314Z,997.93
2017-02-21T06:24:26.949Z,997.87
2017-02-21T06:25:36.762Z,997.92
2017-02-21T06:26:46.103Z,997.99
2017-02-21T06:27:55.414Z,997.96
2017-02-21T06:29:06.043Z,997.99
2017-02-21T06:30:16.662Z,997.96
2017-02-21T06:31:26.051Z,997.98
2017-02-21T06:32:35.808Z,997.98
2017-02-21T06:33:45.124Z,998.11
2017-02-21T06:34:55.319Z,998.07
2017-02-21T06:36:05.075Z,998.14
2017-02-21T06:37:14.457Z,998.18
2017-02-21T06:38:24.226Z,998.19
2017-02-21T06:39:34.416Z,998.21
2017-02-21T06:40:44.165Z,998.32
2017-02-21T06:41:53.492Z,998.32
2017-02-21T06:43:03.463Z,998.29
2017-02-21T06:44:12.768Z,998.29
2017-02-21T06:45:22.529Z,998.23
2017-02-21T06:46:32.278Z,998.21
2017-02-21T06:47:41.600Z,998.3
2017-02-21T06:48:51.847Z,998.26
2017-02-21T06:50:01.607Z,998.27
2017-02-21T06:51:11.370Z,998.27
2017-02-21T06:52:20.686Z,998.32
2017-02-21T06:53:30.888Z,998.26
2017-02-21T06:54:40.701Z,998.3
2017-02-21T06:55:50.894Z,998.24
2017-02-21T06:57:00.661Z,998.25
2017-02-21T06:58:10.409Z,998.31
2017-02-21T06:59:20.163Z,998.22
2017-02-21T07:00:30.467Z,998.25
2017-02-21T07:01:40.229Z,998.29
2017-02-21T07:02:49.998Z,998.28
2017-02-21T07:04:00.216Z,998.42
2017-02-21T07:05:09.967Z,998.28
2017-02-21T07:06:19.399Z,998.26
2017-02-21T07:07:29.148Z,998.32
2017-02-21T07:08:38.479Z,998.34
2017-02-21T07:09:48.238Z,998.36
2017-02-21T07:10:57.561Z,998.33
2017-02-21T07:12:07.815Z,998.41
2017-02-21T07:13:17.573Z,998.37
2017-02-21T07:14:26.897Z,998.41
2017-02-21T07:15:36.653Z,998.43
2017-02-21T07:16:45.977Z,998.41
2017-02-21T07:17:55.342Z,998.45
2017-02-21T07:19:05.119Z,998.46
2017-02-21T07:20:14.872Z,998.46
2017-02-21T07:21:24.204Z,998.44
2017-02-21T07:22:33.518Z,998.49
2017-02-21T07:23:44.620Z,998.46
2017-02-21T07:24:54.396Z,998.52
2017-02-21T07:26:04.157Z,998.55
2017-02-21T07:27:13.923Z,998.49
2017-02-21T07:28:23.240Z,998.5
2017-02-21T07:29:33.170Z,998.48
2017-02-21T07:30:42.919Z,998.56
2017-02-21T07:31:52.231Z,998.52
2017-02-21T07:33:01.981Z,998.56
2017-02-21T07:34:11.765Z,998.49
2017-02-21T07:35:21.739Z,998.54
2017-02-21T07:36:31.540Z,998.5
2017-02-21T07:37:41.290Z,998.41
2017-02-21T07:38:51.044Z,998.51
2017-02-21T07:40:01.277Z,998.47
2017-02-21T07:41:11.518Z,998.47
2017-02-21T07:42:21.279Z,998.44
2017-02-21T07:43:30.592Z,998.54
2017-02-21T07:44:40.355Z,998.44
2017-02-21T07:45:49.669Z,998.49
2017-02-21T07:47:00.066Z,998.58
2017-02-21T07:48:09.821Z,998.52
2017-02-21T07:49:19.190Z,998.54
2017-02-21T07:50:28.971Z,998.51
2017-02-21T07:51:39.613Z,998.58
2017-02-21T07:52:49.424Z,998.56
2017-02-21T07:54:00.045Z,998.66
2017-02-21T07:55:09.799Z,998.56
2017-02-21T07:56:19.993Z,998.61
2017-02-21T07:57:29.738Z,998.56
2017-02-21T07:58:39.535Z,998.57
2017-02-21T07:59:50.624Z,998.61
2017-02-21T08:00:59.934Z,998.71
2017-02-21T08:02:09.713Z,998.66
2017-02-21T08:03:19.499Z,998.61
2017-02-21T08:04:29.752Z,998.65
2017-02-21T08:05:39.516Z,998.66
2017-02-21T08:06:49.263Z,998.68
2017-02-21T08:07:58.585Z,998.68
2017-02-21T08:09:08.338Z,998.79
2017-02-21T08:10:17.699Z,998.76
2017-02-21T08:11:27.023Z,998.82
2017-02-21T08:12:37.265Z,998.79
2017-02-21T08:13:47.034Z,998.83
2017-02-21T08:14:56.792Z,998.77
2017-02-21T08:16:06.763Z,998.86
2017-02-21T08:17:16.962Z,998.94
2017-02-21T08:18:26.267Z,998.95
2017-02-21T08:19:36.464Z,998.98
2017-02-21T08:20:46.225Z,998.95
2017-02-21T08:21:55.601Z,998.93
2017-02-21T08:23:04.923Z,999
2017-02-21T08:24:14.259Z,999.01
2017-02-21T08:25:24.461Z,998.95
2017-02-21T08:26:34.207Z,999.09
2017-02-21T08:27:44.600Z,998.97
2017-02-21T08:28:53.966Z,999.06
2017-02-21T08:30:03.305Z,999.02
2017-02-21T08:31:13.497Z,999.14
2017-02-21T08:32:23.264Z,999.02
2017-02-21T08:33:32.617Z,999.08
2017-02-21T08:34:41.945Z,999.02
2017-02-21T08:35:52.160Z,998.94
2017-02-21T08:37:02.357Z,999.04
2017-02-21T08:38:11.672Z,999.07
2017-02-21T08:39:21.058Z,999.1
2017-02-21T08:40:30.399Z,998.97
2017-02-21T08:41:40.173Z,999.06
2017-02-21T08:42:49.946Z,999.15
2017-02-21T08:44:00.166Z,999.15
2017-02-21T08:45:09.532Z,999.15
2017-02-21T08:46:19.281Z,999.11
2017-02-21T08:47:28.617Z,999.25
2017-02-21T08:48:37.935Z,999.1
2017-02-21T08:49:47.707Z,999.1
2017-02-21T08:50:58.397Z,999.12
2017-02-21T08:52:08.171Z,999.24
2017-02-21T08:53:17.952Z,999.18
2017-02-21T08:54:27.297Z,999.25
2017-02-21T08:55:37.045Z,999.24
2017-02-21T08:56:46.858Z,999.18
2017-02-21T08:57:57.047Z,999.29
2017-02-21T08:59:07.234Z,999.22
2017-02-21T09:00:17.407Z,999.29
2017-02-21T09:01:27.587Z,999.24
2017-02-21T09:02:36.961Z,999.24
2017-02-21T09:03:47.183Z,999.23
2017-02-21T09:04:57.392Z,999.33
2017-02-21T09:06:07.164Z,999.27
2017-02-21T09:07:16.918Z,999.27
2017-02-21T09:08:27.145Z,999.25
2017-02-21T09:09:36.916Z,999.31
2017-02-21T09:10:46.697Z,999.36
2017-02-21T09:11:56.439Z,999.35
2017-02-21T09:13:06.204Z,999.39
2017-02-21T09:14:16.023Z,999.41
2017-02-21T09:15:26.216Z,999.37
2017-02-21T09:16:35.986Z,999.29
2017-02-21T09:17:45.302Z,999.38
2017-02-21T09:18:55.937Z,999.32
2017-02-21T09:20:06.166Z,999.36
2017-02-21T09:21:15.912Z,999.4
2017-02-21T09:22:25.685Z,999.36
2017-02-21T09:23:35.437Z,999.39
2017-02-21T09:24:45.189Z,999.42
2017-02-21T09:25:55.424Z,999.35
2017-02-21T09:27:05.613Z,999.41
2017-02-21T09:28:15.363Z,999.43
2017-02-21T09:29:24.674Z,999.38
2017-02-21T09:30:34.876Z,999.43
2017-02-21T09:31:44.245Z,999.38
2017-02-21T09:32:53.994Z,999.47
2017-02-21T09:34:03.774Z,999.45
2017-02-21T09:35:13.524Z,999.46
2017-02-21T09:36:22.841Z,999.52
2017-02-21T09:37:32.858Z,999.62
2017-02-21T09:38:43.073Z,999.54
2017-02-21T09:39:52.818Z,999.55
2017-02-21T09:41:02.575Z,999.62
2017-02-21T09:42:12.800Z,999.69
2017-02-21T09:43:22.175Z,999.67
2017-02-21T09:44:31.938Z,999.69
2017-02-21T09:45:41.262Z,999.73
2017-02-21T09:46:51.456Z,999.71
2017-02-21T09:48:00.760Z,999.73
2017-02-21T09:49:10.585Z,999.74
2017-02-21T09:50:19.932Z,999.75
2017-02-21T09:51:29.277Z,999.75
2017-02-21T09:52:38.638Z,999.75
2017-02-21T09:53:48.386Z,999.71
2017-02-21T09:54:59.696Z,999.8
2017-02-21T09:56:09.509Z,999.83
2017-02-21T09:57:19.298Z,999.76
2017-02-21T09:58:28.635Z,999.75
2017-02-21T09:59:37.951Z,999.81
2017-02-21T10:00:48.181Z,999.83
2017-02-21T10:01:58.379Z,999.77
2017-02-21T10:03:08.189Z,999.8
2017-02-21T10:04:17.985Z,999.81
2017-02-21T10:05:27.310Z,999.85
2017-02-21T10:06:36.676Z,999.92
2017-02-21T10:07:46.004Z,999.85
2017-02-21T10:08:55.756Z,999.87
2017-02-21T10:10:05.975Z,999.91
2017-02-21T10:11:15.305Z,999.78
2017-02-21T10:12:24.662Z,999.91
2017-02-21T10:13:33.994Z,999.8
2017-02-21T10:14:43.788Z,999.92
2017-02-21T10:15:53.971Z,999.89
2017-02-21T10:17:04.610Z,999.9
2017-02-21T10:18:13.968Z,999.94
2017-02-21T10:19:23.736Z,999.85
2017-02-21T10:20:33.504Z,999.89
2017-02-21T10:21:43.718Z,999.85
2017-02-21T10:22:53.494Z,999.93
2017-02-21T10:24:04.324Z,999.9
2017-02-21T10:25:14.539Z,999.85
2017-02-21T10:26:24.752Z,999.99
2017-02-21T10:27:34.503Z,999.97
2017-02-21T10:28:45.154Z,999.93
2017-02-21T10:29:54.527Z,999.91
2017-02-21T10:31:04.289Z,999.89
2017-02-21T10:32:14.066Z,999.94
2017-02-21T10:33:23.842Z,999.89
2017-02-21T10:34:34.468Z,999.94
2017-02-21T10:35:43.869Z,999.9
2017-02-21T10:36:53.187Z,999.93
2017-02-21T10:38:02.951Z,1000.01
2017-02-21T10:39:12.725Z,999.99
2017-02-21T10:40:22.921Z,1000.01
2017-02-21T10:41:32.738Z,999.96
2017-02-21T10:42:42.941Z,1000.05
2017-02-21T10:43:52.689Z,1000.08
2017-02-21T10:45:02.467Z,1000.02
2017-02-21T10:46:11.804Z,1000.14
2017-02-21T10:47:22.042Z,1000.07
2017-02-21T10:48:31.827Z,1000.08
2017-02-21T10:49:41.580Z,1000.08
2017-02-21T10:50:51.352Z,1000.05
2017-02-21T10:52:00.657Z,1000.03
2017-02-21T10:53:10.448Z,1000.04
2017-02-21T10:54:21.109Z,1000.07
2017-02-21T10:55:30.433Z,1000.08
2017-02-21T10:56:40.195Z,1000.12
2017-02-21T10:57:49.972Z,1000.09
2017-02-21T10:58:59.816Z,1000.18
2017-02-21T11:00:10.449Z,1000.15
2017-02-21T11:01:21.103Z,1000.18
2017-02-21T11:02:31.302Z,1000.12
2017-02-21T11:03:41.497Z,1000.2
2017-02-21T11:04:52.180Z,1000.23
2017-02-21T11:06:01.504Z,1000.22
2017-02-21T11:07:11.281Z,1000.25
2017-02-21T11:08:21.078Z,1000.2
2017-02-21T11:09:31.727Z,1000.23
2017-02-21T11:10:41.553Z,1000.25
2017-02-21T11:11:52.216Z,1000.24
2017-02-21T11:13:02.423Z,1000.23
2017-02-21T11:14:13.068Z,1000.25
2017-02-21T11:15:23.266Z,1000.26
2017-02-21T11:16:33.947Z,1000.24
2017-02-21T11:17:43.733Z,1000.3
2017-02-21T11:18:53.521Z,1000.33
2017-02-21T11:20:03.264Z,1000.28
2017-02-21T11:21:14.343Z,1000.33
2017-02-21T11:22:24.167Z,1000.27
2017-02-21T11:23:33.918Z,1000.35
2017-02-21T11:24:44.545Z,1000.39
2017-02-21T11:25:53.878Z,1000.37
2017-02-21T11:27:03.211Z,1000.42
2017-02-21T11:28:13.014Z,1000.43
2017-02-21T11:29:23.706Z,1000.43
2017-02-21T11:30:33.453Z,1000.49
2017-02-21T11:31:43.227Z,1000.49
2017-02-21T11:32:52.988Z,1000.48
2017-02-21T11:34:03.251Z,1000.49
2017-02-21T11:35:13.491Z,1000.49
2017-02-21T11:36:23.264Z,1000.55
2017-02-21T11:37:33.027Z,1000.47
2017-02-21T11:38:42.346Z,1000.51
2017-02-21T11:39:52.163Z,1000.45
2017-02-21T11:41:01.480Z,1000.44
2017-02-21T11:42:11.251Z,1000.42
2017-02-21T11:43:21.879Z,1000.48
2017-02-21T11:44:31.632Z,1000.54
2017-02-21T11:45:40.994Z,1000.57
2017-02-21T11:46:51.203Z,1000.53
2017-02-21T11:48:00.957Z,1000.53
2017-02-21T11:49:10.285Z,1000.39
2017-02-21T11:50:20.494Z,1000.57
2017-02-21T11:51:30.752Z,1000.51
2017-02-21T11:52:40.973Z,1000.54
2017-02-21T11:53:50.738Z,1000.55
2017-02-21T11:55:00.488Z,1000.52
2017-02-21T11:56:09.811Z,1000.57
2017-02-21T11:57:19.642Z,1000.54
2017-02-21T11:58:29.407Z,1000.68
2017-02-21T11:59:39.648Z,1000.64
2017-02-21T12:00:49.843Z,1000.61
2017-02-21T12:01:59.159Z,1000.61
2017-02-21T12:03:09.850Z,1000.71
2017-02-21T12:04:19.200Z,1000.61
2017-02-21T12:05:29.852Z,1000.57
2017-02-21T12:06:39.620Z,1000.59
2017-02-21T12:07:49.825Z,1000.56
2017-02-21T12:09:00.074Z,1000.61
2017-02-21T12:10:10.752Z,1000.66
2017-02-21T12:11:20.561Z,1000.57
2017-02-21T12:12:30.754Z,1000.64
2017-02-21T12:13:40.951Z,1000.61
2017-02-21T12:14:50.763Z,1000.62
2017-02-21T12:16:00.978Z,1000.66
2017-02-21T12:17:10.739Z,1000.63
2017-02-21T12:18:21.368Z,1000.6
2017-02-21T12:19:31.561Z,1000.63
2017-02-21T12:20:42.264Z,1000.68
2017-02-21T12:21:52.020Z,1000.65
2017-02-21T12:23:01.805Z,1000.63
2017-02-21T12:24:11.574Z,1000.68
2017-02-21T12:25:21.763Z,1000.65
2017-02-21T12:26:31.620Z,1000.58
2017-02-21T12:27:40.926Z,1000.56
2017-02-21T12:28:50.235Z,1000.58
2017-02-21T12:30:00.000Z,1000.58
2017-02-21T12:31:10.209Z,1000.59
2017-02-21T12:32:20.907Z,1000.64
2017-02-21T12:33:31.096Z,1000.62
2017-02-21T12:34:40.869Z,1000.6
2017-02-21T12:35:51.071Z,1000.5
2017-02-21T12:37:00.401Z,1000.49
2017-02-21T12:38:10.640Z,1000.51
2017-02-21T12:39:19.956Z,1000.55
2017-02-21T12:40:29.277Z,1000.54
2017-02-21T12:41:39.046Z,1000.56
2017-02-21T12:42:48.385Z,1000.6
2017-02-21T12:43:58.188Z,1000.57
2017-02-21T12:45:07.950Z,1000.55
2017-02-21T12:46:17.705Z,1000.53
2017-02-21T12:47:28.774Z,1000.53
2017-02-21T12:48:38.988Z,1000.56
2017-02-21T12:49:48.945Z,1000.52
2017-02-21T12:50:59.166Z,1000.48
2017-02-21T12:52:09.387Z,1000.49
2017-02-21T12:53:19.624Z,1000.54
2017-02-21T12:54:29.833Z,1000.48
2017-02-21T12:55:39.647Z,1000.46
2017-02-21T12:56:49.852Z,1000.45
2017-02-21T12:58:00.490Z,1000.47
2017-02-21T12:59:09.838Z,1000.46
2017-02-21T13:00:20.036Z,1000.48
2017-02-21T13:01:30.418Z,1000.53
2017-02-21T13:02:40.170Z,1000.56
2017-02-21T13:03:50.373Z,1000.59
2017-02-21T13:05:00.568Z,1000.6
2017-02-21T13:06:10.774Z,1000.59
2017-02-21T13:07:20.589Z,1000.66
2017-02-21T13:08:30.794Z,1000.63
2017-02-21T13:09:40.539Z,1000.63
2017-02-21T13:10:50.319Z,1000.6
2017-02-21T13:12:00.082Z,1000.59
2017-02-21T13:13:10.057Z,1000.66
2017-02-21T13:14:19.383Z,1000.65
2017-02-21T13:15:28.699Z,1000.73
2017-02-21T13:16:38.460Z,1000.7
2017-02-21T13:17:48.665Z,1000.7
2017-02-21T13:18:58.467Z,1000.72
2017-02-21T13:20:08.693Z,1000.71
2017-02-21T13:21:18.470Z,1000.7
2017-02-21T13:22:28.254Z,1000.73
2017-02-21T13:23:39.321Z,1000.77
2017-02-21T13:24:49.230Z,1000.76
2017-02-21T13:25:58.543Z,1000.77
2017-02-21T13:27:08.294Z,1000.77
2017-02-21T13:28:18.940Z,1000.73
2017-02-21T13:29:29.130Z,1000.76
2017-02-21T13:30:38.703Z,1000.79
2017-02-21T13:31:48.451Z,1000.78
2017-02-21T13:32:59.134Z,1000.83
2017-02-21T13:34:08.881Z,1000.78
2017-02-21T13:35:18.192Z,1000.87
2017-02-21T13:36:28.433Z,1000.83
2017-02-21T13:37:39.062Z,1000.82
2017-02-21T13:38:49.258Z,1000.9
2017-02-21T13:39:58.579Z,1000.82
2017-02-21T13:41:08.785Z,1000.82
2017-02-21T13:42:18.185Z,1000.82
2017-02-21T13:43:27.522Z,1000.82
2017-02-21T13:44:38.159Z,1000.8
2017-02-21T13:45:47.927Z,1000.82
2017-02-21T13:46:57.246Z,1000.79
2017-02-21T13:48:07.059Z,1000.73
2017-02-21T13:49:17.688Z,1000.83
2017-02-21T13:50:27.008Z,1000.75
2017-02-21T13:51:37.218Z,1000.79
2017-02-21T13:52:46.993Z,1000.82
2017-02-21T13:53:56.808Z,1000.83
2017-02-21T13:55:07.013Z,1000.77
2017-02-21T13:56:16.779Z,1000.83
2017-02-21T13:57:26.540Z,1000.81
2017-02-21T13:58:36.757Z,1000.8
2017-02-21T13:59:47.018Z,1000.82
2017-02-21T14:00:56.779Z,1000.91
2017-02-21T14:02:06.584Z,1000.81
2017-02-21T14:03:17.223Z,1000.8
2017-02-21T14:04:26.971Z,1000.84
2017-02-21T14:05:37.208Z,1000.83
2017-02-21T14:06:46.970Z,1000.82
2017-02-21T14:07:57.196Z,1000.76
2017-02-21T14:09:06.955Z,1000.78
2017-02-21T14:10:16.268Z,1000.69
2017-02-21T14:11:26.954Z,1000.69
2017-02-21T14:12:36.724Z,1000.75
2017-02-21T14:13:46.496Z,1000.69
2017-02-21T14:14:56.709Z,1000.74
2017-02-21T14:16:07.358Z,1000.72
2017-02-21T14:17:17.611Z,1000.78
2017-02-21T14:18:26.934Z,1000.66
2017-02-21T14:19:37.565Z,1000.74
2017-02-21T14:20:47.743Z,1000.74
2017-02-21T14:21:57.498Z,1000.73
2017-02-21T14:23:07.294Z,1000.78
2017-02-21T14:24:17.486Z,1000.79
2017-02-21T14:25:27.243Z,1000.73
2017-02-21T14:26:37.000Z,1000.74